logo
Rechercher aéroport 
image banner adimage banner adimage banner ad
image banner ad

YTUL - Tullah

Situé à Tullah, Australia

ICAO - , IATA -

Données fournies par Airmate  

Information générale

Coordonnées: S41°43'57" E145°37'15"
Élévation : 553 feet MSL.
Variation magnétique : 14° East
Voir autres Aéroports à Tasmania

Données opérationnelles

Special qualification required
Heure actuelle UTC:
Heure actuelle locale:
Météo à : - ( 0 km )
METAR: KGEU 180047Z 22010KT 10SM SKC 37/M03 A2969
Voir NOTAMs / SUP AIP / TFR affectant cet aéroport [VIEW]
Fréquences de communication: [VIEW]

Pistes:

Coordonnées de l'aéroport

Adresse: Tullah Australia

Vue satellite de YTUL